createdAt,value
2022-09-09T00:02:09.767Z,16.14
2022-09-09T00:04:38.538Z,16.12
2022-09-09T00:07:17.305Z,16.08
2022-09-09T00:09:50.290Z,16.08
2022-09-09T00:12:26.044Z,16.01
2022-09-09T00:15:15.281Z,16.05
2022-09-09T00:17:50.761Z,15.94
2022-09-09T00:20:25.517Z,16.00
2022-09-09T00:23:00.951Z,15.99
2022-09-09T00:25:55.074Z,16.00
2022-09-09T00:28:26.501Z,15.97
2022-09-09T00:30:53.248Z,15.94
2022-09-09T00:33:25.661Z,15.99
2022-09-09T00:35:57.420Z,16.02
2022-09-09T00:38:42.499Z,15.96
2022-09-09T00:41:20.231Z,15.96
2022-09-09T00:43:56.533Z,15.98
2022-09-09T00:46:24.796Z,15.88
2022-09-09T00:48:57.440Z,15.79
2022-09-09T00:51:48.855Z,15.80
2022-09-09T00:54:27.857Z,15.73
2022-09-09T00:57:04.711Z,15.80
2022-09-09T00:59:41.226Z,15.67
2022-09-09T01:02:19.112Z,15.58
2022-09-09T01:04:46.231Z,15.60
2022-09-09T01:07:20.071Z,15.57
2022-09-09T01:10:04.706Z,15.56
2022-09-09T01:12:36.502Z,15.58
2022-09-09T01:15:21.196Z,15.58
2022-09-09T01:18:05.386Z,15.59
2022-09-09T01:21:03.103Z,15.63
2022-09-09T01:24:21.153Z,15.62
2022-09-09T01:27:08.742Z,15.69
2022-09-09T01:29:35.576Z,15.68
2022-09-09T01:32:40.170Z,15.60
2022-09-09T01:35:11.615Z,15.61
2022-09-09T01:37:39.359Z,15.53
2022-09-09T01:40:06.611Z,15.48
2022-09-09T01:42:34.790Z,15.47
2022-09-09T01:45:01.547Z,15.52
2022-09-09T01:47:28.329Z,15.48
2022-09-09T01:50:13.706Z,15.34
2022-09-09T01:52:40.398Z,15.35
2022-09-09T01:55:11.867Z,15.34
2022-09-09T01:57:49.256Z,15.35
2022-09-09T02:00:17.473Z,15.28
2022-09-09T02:02:59.498Z,15.29
2022-09-09T02:05:42.755Z,15.31
2022-09-09T02:08:40.766Z,15.35
2022-09-09T02:11:23.911Z,15.42
2022-09-09T02:14:05.676Z,15.11
2022-09-09T02:16:58.195Z,15.02
2022-09-09T02:19:36.287Z,15.01
2022-09-09T02:22:13.430Z,15.05
2022-09-09T02:24:41.189Z,14.95
2022-09-09T02:27:23.995Z,14.95
2022-09-09T02:29:53.329Z,15.03
2022-09-09T02:32:33.409Z,14.93
2022-09-09T02:35:09.865Z,14.95
2022-09-09T02:37:39.545Z,14.97
2022-09-09T02:40:09.286Z,15.00
2022-09-09T02:42:41.258Z,15.01
2022-09-09T02:45:09.883Z,15.07
2022-09-09T02:47:42.473Z,15.07
2022-09-09T02:50:18.163Z,15.06
2022-09-09T02:53:17.348Z,15.12
2022-09-09T02:55:55.871Z,15.15
2022-09-09T02:58:24.436Z,15.15
2022-09-09T03:00:59.007Z,15.25
2022-09-09T03:03:26.664Z,15.25
2022-09-09T03:05:53.500Z,15.21
2022-09-09T03:08:20.135Z,15.27
2022-09-09T03:10:47.699Z,15.15
2022-09-09T03:13:16.334Z,15.08
2022-09-09T03:15:43.687Z,15.06
2022-09-09T03:18:15.430Z,15.04
2022-09-09T03:20:43.147Z,15.11
2022-09-09T03:23:15.438Z,15.20
2022-09-09T03:25:50.966Z,15.27
2022-09-09T03:28:21.803Z,15.35
2022-09-09T03:30:50.023Z,15.37
2022-09-09T03:33:17.315Z,15.40
2022-09-09T03:35:48.571Z,15.44
2022-09-09T03:38:15.776Z,15.48
2022-09-09T03:40:56.196Z,15.46
2022-09-09T03:43:24.179Z,15.49
2022-09-09T03:45:52.787Z,15.47
2022-09-09T03:48:20.357Z,15.50
2022-09-09T03:50:48.578Z,15.51
2022-09-09T03:53:17.121Z,15.47
2022-09-09T03:55:48.790Z,15.49
2022-09-09T03:58:17.039Z,15.49
2022-09-09T04:00:46.203Z,15.57
2022-09-09T04:03:13.181Z,15.54
2022-09-09T04:05:43.256Z,15.51
2022-09-09T04:08:10.596Z,15.45
2022-09-09T04:10:38.221Z,15.47
2022-09-09T04:13:05.942Z,15.48
2022-09-09T04:15:33.406Z,15.53
2022-09-09T04:18:00.080Z,15.53
2022-09-09T04:20:27.022Z,15.57
2022-09-09T04:22:53.540Z,15.51
2022-09-09T04:25:21.098Z,15.55
2022-09-09T04:27:48.598Z,15.57
2022-09-09T04:30:15.426Z,15.56
2022-09-09T04:32:42.657Z,15.57
2022-09-09T04:35:09.513Z,15.59
2022-09-09T04:37:36.608Z,15.52
2022-09-09T04:40:03.304Z,15.56
2022-09-09T04:42:31.060Z,15.50
2022-09-09T04:44:57.873Z,15.48
2022-09-09T04:47:24.453Z,15.50
2022-09-09T04:49:51.267Z,15.50
2022-09-09T04:52:18.355Z,15.52
2022-09-09T04:54:45.688Z,15.52
2022-09-09T04:57:16.612Z,15.53
2022-09-09T04:59:46.866Z,15.53
2022-09-09T05:02:13.592Z,15.49
2022-09-09T05:04:40.347Z,15.48
2022-09-09T05:07:07.922Z,15.46
2022-09-09T05:09:34.627Z,15.45
2022-09-09T05:12:01.907Z,15.47
2022-09-09T05:14:32.359Z,15.50
2022-09-09T05:17:00.968Z,15.48
2022-09-09T05:19:27.819Z,15.51
2022-09-09T05:21:54.746Z,15.53
2022-09-09T05:24:28.081Z,15.55
2022-09-09T05:26:59.154Z,15.49
2022-09-09T05:29:25.997Z,15.54
2022-09-09T05:31:52.828Z,15.49
2022-09-09T05:34:21.821Z,15.52
2022-09-09T05:36:49.402Z,15.55
2022-09-09T05:39:16.435Z,15.63
2022-09-09T05:41:43.022Z,15.61
2022-09-09T05:44:09.606Z,15.64
2022-09-09T05:46:39.168Z,15.68
2022-09-09T05:49:06.603Z,15.61
2022-09-09T05:51:34.671Z,15.65
2022-09-09T05:54:15.799Z,15.60
2022-09-09T05:56:49.842Z,15.54
2022-09-09T05:59:18.113Z,15.50
2022-09-09T06:01:46.253Z,15.46
2022-09-09T06:04:41.938Z,15.38
2022-09-09T06:07:08.692Z,15.37
2022-09-09T06:09:35.886Z,15.43
2022-09-09T06:12:02.734Z,15.53
2022-09-09T06:14:31.568Z,15.56
2022-09-09T06:17:00.014Z,15.68
2022-09-09T06:19:29.890Z,15.82
2022-09-09T06:21:58.607Z,15.95
2022-09-09T06:24:25.548Z,15.94
2022-09-09T06:26:52.155Z,15.97
2022-09-09T06:29:24.363Z,16.09
2022-09-09T06:31:52.495Z,16.12
2022-09-09T06:34:24.371Z,16.15
2022-09-09T06:36:54.890Z,16.23
2022-09-09T06:39:22.640Z,16.36
2022-09-09T06:41:50.775Z,16.63
2022-09-09T06:44:36.041Z,16.97
2022-09-09T06:47:05.145Z,17.33
2022-09-09T06:49:33.198Z,17.23
2022-09-09T06:52:01.074Z,16.82
2022-09-09T06:54:29.604Z,16.87
2022-09-09T06:56:56.627Z,16.87
2022-09-09T06:59:24.032Z,16.91
2022-09-09T07:01:56.226Z,17.34
2022-09-09T07:04:23.615Z,17.37
2022-09-09T07:06:50.360Z,17.46
2022-09-09T07:09:21.641Z,17.40
2022-09-09T07:11:54.898Z,17.31
2022-09-09T07:14:23.502Z,17.64
2022-09-09T07:16:59.364Z,18.04
2022-09-09T07:19:27.016Z,18.30
2022-09-09T07:21:55.078Z,18.72
2022-09-09T07:24:24.194Z,18.68
2022-09-09T07:26:50.906Z,18.53
2022-09-09T07:29:20.811Z,18.86
2022-09-09T07:31:49.355Z,18.82
2022-09-09T07:34:20.659Z,18.49
2022-09-09T07:36:47.779Z,18.85
2022-09-09T07:39:15.747Z,19.09
2022-09-09T07:41:49.351Z,19.36
2022-09-09T07:44:25.918Z,19.17
2022-09-09T07:47:09.556Z,19.95
2022-09-09T07:49:40.437Z,20.24
2022-09-09T07:52:08.494Z,19.94
2022-09-09T07:54:36.522Z,19.76
2022-09-09T07:57:05.617Z,20.06
2022-09-09T07:59:35.189Z,20.30
2022-09-09T08:02:02.945Z,19.98
2022-09-09T08:04:32.318Z,20.57
2022-09-09T08:07:02.070Z,20.42
2022-09-09T08:09:30.876Z,20.28
2022-09-09T08:12:10.514Z,20.15
2022-09-09T08:14:37.338Z,20.34
2022-09-09T08:17:04.079Z,20.10
2022-09-09T08:19:35.142Z,19.91
2022-09-09T08:22:03.869Z,19.84
2022-09-09T08:24:32.180Z,19.83
2022-09-09T08:26:58.822Z,21.62
2022-09-09T08:29:25.400Z,21.82
2022-09-09T08:31:58.204Z,21.64
2022-09-09T08:34:28.157Z,21.21
2022-09-09T08:36:56.934Z,20.54
2022-09-09T08:39:29.936Z,20.04
2022-09-09T08:42:24.077Z,19.86
2022-09-09T08:45:13.464Z,20.24
2022-09-09T08:47:50.396Z,21.10
2022-09-09T08:50:23.237Z,21.21
2022-09-09T08:52:58.365Z,21.38
2022-09-09T08:55:47.019Z,21.99
2022-09-09T08:58:33.812Z,22.08
2022-09-09T09:01:03.536Z,22.34
2022-09-09T09:03:36.734Z,21.89
2022-09-09T09:06:31.523Z,20.95
2022-09-09T09:09:21.291Z,21.51
2022-09-09T09:11:54.405Z,20.81
2022-09-09T09:14:24.523Z,21.83
2022-09-09T09:17:01.836Z,21.99
2022-09-09T09:19:31.200Z,21.97
2022-09-09T09:22:19.294Z,21.46
2022-09-09T09:24:59.150Z,21.78
2022-09-09T09:27:36.420Z,22.27
2022-09-09T09:30:29.399Z,21.86
2022-09-09T09:33:02.823Z,22.29
2022-09-09T09:35:29.453Z,22.68
2022-09-09T09:41:01.448Z,21.10
2022-09-09T09:43:32.414Z,20.50
2022-09-09T09:46:17.585Z,22.19
2022-09-09T09:48:47.429Z,22.08
2022-09-09T09:51:24.147Z,22.52
2022-09-09T09:53:53.857Z,23.07
2022-09-09T09:56:31.764Z,23.58
2022-09-09T09:58:59.774Z,23.55
2022-09-09T10:01:35.668Z,23.96
2022-09-09T10:04:18.098Z,23.19
2022-09-09T10:06:45.240Z,24.10
2022-09-09T10:09:25.519Z,23.78
2022-09-09T10:12:04.868Z,22.93
2022-09-09T10:14:36.341Z,22.42
2022-09-09T10:17:21.817Z,23.43
2022-09-09T10:20:12.586Z,23.43
2022-09-09T10:22:48.223Z,24.24
2022-09-09T10:25:45.298Z,24.63
2022-09-09T10:28:34.106Z,22.92
2022-09-09T10:31:31.342Z,23.07
2022-09-09T10:34:00.794Z,23.80
2022-09-09T10:36:28.881Z,22.97
2022-09-09T10:39:04.088Z,22.76
2022-09-09T10:41:57.092Z,23.54
2022-09-09T10:44:56.129Z,22.86
2022-09-09T10:47:45.374Z,22.73
2022-09-09T10:50:59.809Z,22.55
2022-09-09T10:53:37.400Z,23.19
2022-09-09T10:56:31.539Z,23.35
2022-09-09T10:59:05.788Z,23.75
2022-09-09T11:01:45.805Z,22.24
2022-09-09T11:04:23.134Z,22.87
2022-09-09T11:06:54.952Z,23.43
2022-09-09T11:09:33.978Z,22.33
2022-09-09T11:12:04.890Z,22.27
2022-09-09T11:14:47.284Z,22.01
2022-09-09T11:17:21.529Z,23.29
2022-09-09T11:19:48.442Z,23.16
2022-09-09T11:22:30.563Z,23.21
2022-09-09T11:25:09.687Z,23.15
2022-09-09T11:28:01.422Z,22.46
2022-09-09T11:30:55.040Z,22.83
2022-09-09T11:33:28.622Z,23.05
2022-09-09T11:36:13.277Z,23.30
2022-09-09T11:38:46.883Z,23.56
2022-09-09T11:41:19.533Z,23.97
2022-09-09T11:43:52.995Z,23.43
2022-09-09T11:46:40.872Z,24.28
2022-09-09T11:49:26.138Z,24.20
2022-09-09T11:51:52.757Z,23.69
2022-09-09T11:54:34.616Z,23.89
2022-09-09T11:57:02.837Z,22.99
2022-09-09T11:59:34.051Z,22.75
2022-09-09T12:02:33.179Z,22.83
2022-09-09T12:05:09.675Z,22.42
2022-09-09T12:07:43.814Z,22.95
2022-09-09T12:10:22.013Z,23.11
2022-09-09T12:12:48.632Z,23.73
2022-09-09T12:15:22.020Z,24.00
2022-09-09T12:17:54.340Z,24.09
2022-09-09T12:20:37.864Z,23.76
2022-09-09T12:23:34.478Z,24.53
2022-09-09T12:26:19.615Z,24.05
2022-09-09T12:28:58.393Z,24.60
2022-09-09T12:31:31.698Z,24.13
2022-09-09T12:34:11.037Z,22.69
2022-09-09T12:36:38.926Z,22.43
2022-09-09T12:39:36.945Z,22.64
2022-09-09T12:42:05.033Z,23.52
2022-09-09T12:44:33.477Z,23.86
2022-09-09T12:47:04.306Z,23.04
2022-09-09T12:49:40.078Z,22.71
2022-09-09T12:52:18.001Z,23.86
2022-09-09T12:54:47.866Z,23.86
2022-09-09T12:57:16.001Z,23.81
2022-09-09T12:59:49.172Z,24.20
2022-09-09T13:02:23.248Z,23.75
2022-09-09T13:04:51.539Z,23.10
2022-09-09T13:07:22.725Z,23.54
2022-09-09T13:09:50.371Z,23.38
2022-09-09T13:12:21.975Z,23.22
2022-09-09T13:14:52.048Z,23.52
2022-09-09T13:17:24.706Z,23.52
2022-09-09T13:19:53.886Z,22.93
2022-09-09T13:22:36.954Z,23.10
2022-09-09T13:25:27.003Z,22.53
2022-09-09T13:28:03.372Z,22.40
2022-09-09T13:30:37.231Z,23.41
2022-09-09T13:33:10.099Z,23.67
2022-09-09T13:35:50.432Z,24.12
2022-09-09T13:38:17.718Z,23.56
2022-09-09T13:40:55.614Z,24.00
2022-09-09T13:43:23.943Z,23.21
2022-09-09T13:46:00.929Z,23.09
2022-09-09T13:48:28.311Z,23.82
2022-09-09T13:50:59.924Z,23.79
2022-09-09T13:53:26.792Z,23.96
2022-09-09T13:55:54.473Z,23.28
2022-09-09T13:58:22.592Z,22.86
2022-09-09T14:00:49.554Z,22.40
2022-09-09T14:03:16.182Z,22.29
2022-09-09T14:05:43.406Z,22.45
2022-09-09T14:08:17.303Z,21.75
2022-09-09T14:10:43.829Z,20.61
2022-09-09T14:13:10.368Z,20.00
2022-09-09T14:15:36.946Z,19.41
2022-09-09T14:18:03.660Z,19.53
2022-09-09T14:20:30.286Z,20.16
2022-09-09T14:23:03.210Z,19.77
2022-09-09T14:25:30.088Z,19.89
2022-09-09T14:27:57.263Z,19.88
2022-09-09T14:30:23.902Z,19.85
2022-09-09T14:32:50.442Z,19.41
2022-09-09T14:35:18.327Z,19.75
2022-09-09T14:37:45.684Z,19.85
2022-09-09T14:40:12.400Z,19.66
2022-09-09T14:42:39.026Z,19.92
2022-09-09T14:45:06.253Z,19.86
2022-09-09T14:47:33.270Z,19.81
2022-09-09T14:50:02.036Z,19.42
2022-09-09T14:52:30.437Z,19.19
2022-09-09T14:54:57.032Z,19.09
2022-09-09T14:57:23.754Z,19.06
2022-09-09T14:59:51.371Z,18.94
2022-09-09T15:02:18.100Z,19.00
2022-09-09T15:04:45.241Z,19.03
2022-09-09T15:07:11.929Z,18.87
2022-09-09T15:09:38.476Z,18.73
2022-09-09T15:12:05.724Z,18.91
2022-09-09T15:14:32.256Z,18.79
2022-09-09T15:16:58.796Z,17.75
2022-09-09T15:19:25.491Z,17.16
2022-09-09T15:21:52.537Z,16.86
2022-09-09T15:24:19.332Z,16.72
2022-09-09T15:26:46.053Z,16.51
2022-09-09T15:29:12.866Z,16.65
2022-09-09T15:31:39.467Z,16.64
2022-09-09T15:34:07.951Z,16.67
2022-09-09T15:36:39.245Z,16.39
2022-09-09T15:39:13.660Z,16.38
2022-09-09T15:41:40.798Z,16.39
2022-09-09T15:44:08.928Z,16.29
2022-09-09T15:46:38.433Z,16.35
2022-09-09T15:49:05.127Z,16.31
2022-09-09T15:51:42.164Z,16.24
2022-09-09T15:54:13.296Z,16.28
2022-09-09T15:56:40.673Z,16.32
2022-09-09T15:59:07.287Z,16.38
2022-09-09T16:01:34.790Z,16.58
2022-09-09T16:04:01.603Z,16.51
2022-09-09T16:06:30.420Z,16.65
2022-09-09T16:08:59.095Z,16.59
2022-09-09T16:11:32.178Z,16.72
2022-09-09T16:13:59.572Z,16.85
2022-09-09T16:16:29.245Z,16.82
2022-09-09T16:18:58.471Z,16.69
2022-09-09T16:21:33.939Z,16.58
2022-09-09T16:24:02.157Z,16.62
2022-09-09T16:26:31.720Z,16.58
2022-09-09T16:28:59.932Z,16.63
2022-09-09T16:31:28.292Z,16.66
2022-09-09T16:33:55.562Z,16.54
2022-09-09T16:36:24.964Z,16.51
2022-09-09T16:38:56.171Z,16.57
2022-09-09T16:41:23.166Z,16.62
2022-09-09T16:43:56.378Z,16.53
2022-09-09T16:46:25.152Z,16.54
2022-09-09T16:48:53.071Z,16.58
2022-09-09T16:51:28.455Z,16.55
2022-09-09T16:53:56.413Z,16.49
2022-09-09T16:56:26.312Z,16.41
2022-09-09T16:58:56.675Z,16.25
2022-09-09T17:01:28.690Z,16.20
2022-09-09T17:04:00.807Z,16.21
2022-09-09T17:06:29.941Z,16.13
2022-09-09T17:08:58.507Z,16.12
2022-09-09T17:11:25.847Z,16.11
2022-09-09T17:13:53.981Z,16.11
2022-09-09T17:16:22.956Z,16.01
2022-09-09T17:18:51.523Z,15.92
2022-09-09T17:21:21.206Z,15.92
2022-09-09T17:23:48.244Z,15.78
2022-09-09T17:26:17.639Z,15.79
2022-09-09T17:28:46.649Z,15.72
2022-09-09T17:31:16.157Z,15.67
2022-09-09T17:33:47.100Z,15.65
2022-09-09T17:36:23.278Z,15.62
2022-09-09T17:38:50.697Z,15.61
2022-09-09T17:41:22.843Z,15.58
2022-09-09T17:43:50.902Z,15.58
2022-09-09T17:46:23.067Z,15.55
2022-09-09T17:48:51.843Z,15.53
2022-09-09T17:51:21.208Z,15.51
2022-09-09T17:53:50.268Z,15.55
2022-09-09T17:56:21.087Z,15.50
2022-09-09T17:58:48.424Z,15.45
2022-09-09T18:01:17.731Z,15.42
2022-09-09T18:03:45.791Z,15.40
2022-09-09T18:06:17.387Z,15.46
2022-09-09T18:08:49.262Z,15.43
2022-09-09T18:11:16.587Z,15.42
2022-09-09T18:13:43.622Z,15.46
2022-09-09T18:16:10.808Z,15.39
2022-09-09T18:18:37.826Z,15.31
2022-09-09T18:21:08.180Z,15.29
2022-09-09T18:23:37.452Z,15.36
2022-09-09T18:26:12.199Z,15.37
2022-09-09T18:28:40.367Z,15.38
2022-09-09T18:31:12.799Z,15.35
2022-09-09T18:33:41.236Z,15.31
2022-09-09T18:36:10.542Z,15.35
2022-09-09T18:38:38.599Z,15.26
2022-09-09T18:41:15.615Z,15.23
2022-09-09T18:43:43.030Z,15.33
2022-09-09T18:46:11.278Z,15.31
2022-09-09T18:48:38.840Z,15.26
2022-09-09T18:51:07.798Z,15.23
2022-09-09T18:53:35.660Z,15.24
2022-09-09T18:56:07.331Z,15.21
2022-09-09T18:58:34.927Z,15.17
2022-09-09T19:01:03.075Z,15.22
2022-09-09T19:03:31.100Z,15.26
2022-09-09T19:06:06.704Z,15.24
2022-09-09T19:08:38.314Z,15.17
2022-09-09T19:11:07.375Z,15.16
2022-09-09T19:13:35.093Z,15.10
2022-09-09T19:16:10.402Z,15.07
2022-09-09T19:18:37.419Z,15.08
2022-09-09T19:21:18.986Z,15.04
2022-09-09T19:23:47.618Z,14.96
2022-09-09T19:26:17.777Z,14.88
2022-09-09T19:28:49.965Z,14.85
2022-09-09T19:31:19.009Z,14.81
2022-09-09T19:33:47.308Z,14.82
2022-09-09T19:36:17.881Z,14.79
2022-09-09T19:38:46.267Z,14.75
2022-09-09T19:41:18.581Z,14.63
2022-09-09T19:43:45.444Z,14.68
2022-09-09T19:46:13.876Z,14.66
2022-09-09T19:48:41.721Z,14.65
2022-09-09T19:51:11.649Z,14.60
2022-09-09T19:53:44.718Z,14.63
2022-09-09T19:56:11.760Z,14.60
2022-09-09T19:58:40.093Z,14.59
2022-09-09T20:01:11.413Z,14.54
2022-09-09T20:03:39.266Z,14.50
2022-09-09T20:06:07.320Z,14.47
2022-09-09T20:08:35.457Z,14.46
2022-09-09T20:11:02.787Z,14.42
2022-09-09T20:13:30.890Z,14.39
2022-09-09T20:16:03.925Z,14.36
2022-09-09T20:18:32.471Z,14.27
2022-09-09T20:21:00.739Z,14.25
2022-09-09T20:23:30.828Z,14.33
2022-09-09T20:26:03.058Z,14.34
2022-09-09T20:28:29.893Z,14.32
2022-09-09T20:30:56.584Z,14.32
2022-09-09T20:33:23.171Z,14.27
2022-09-09T20:35:49.805Z,14.28
2022-09-09T20:38:16.394Z,14.27
2022-09-09T20:40:42.922Z,14.29
2022-09-09T20:43:12.717Z,14.26
2022-09-09T20:45:39.606Z,14.31
2022-09-09T20:48:07.341Z,14.24
2022-09-09T20:50:36.948Z,14.29
2022-09-09T20:53:04.311Z,14.28
2022-09-09T20:55:32.412Z,14.26
2022-09-09T20:58:00.314Z,14.22
2022-09-09T21:00:27.016Z,14.27
2022-09-09T21:02:53.583Z,14.19
2022-09-09T21:05:23.878Z,14.26
2022-09-09T21:07:50.888Z,14.33
2022-09-09T21:10:18.217Z,14.42
2022-09-09T21:12:45.123Z,14.41
2022-09-09T21:15:11.860Z,14.40
2022-09-09T21:17:40.290Z,14.42
2022-09-09T21:20:07.568Z,14.39
2022-09-09T21:22:34.149Z,14.44
2022-09-09T21:25:00.786Z,14.44
2022-09-09T21:27:27.362Z,14.41
2022-09-09T21:29:53.983Z,14.51
2022-09-09T21:32:21.464Z,14.47
2022-09-09T21:34:47.985Z,14.53
2022-09-09T21:37:14.525Z,14.57
2022-09-09T21:39:41.273Z,14.53
2022-09-09T21:42:07.822Z,14.53
2022-09-09T21:44:34.387Z,14.43
2022-09-09T21:47:00.935Z,14.24
2022-09-09T21:49:27.523Z,14.44
2022-09-09T21:51:55.146Z,14.45
2022-09-09T21:54:21.795Z,14.42
2022-09-09T21:56:50.008Z,14.45
2022-09-09T21:59:16.533Z,14.49
2022-09-09T22:01:43.244Z,14.45
2022-09-09T22:04:09.839Z,14.45
2022-09-09T22:06:36.615Z,14.38
2022-09-09T22:09:03.675Z,14.27
2022-09-09T22:11:31.453Z,14.17
2022-09-09T22:13:58.155Z,14.31
2022-09-09T22:16:25.553Z,14.12
2022-09-09T22:18:56.773Z,14.24
2022-09-09T22:21:25.088Z,14.37
2022-09-09T22:24:02.835Z,14.38
2022-09-09T22:26:31.851Z,14.47
2022-09-09T22:28:59.469Z,14.51
2022-09-09T22:31:26.904Z,14.41
2022-09-09T22:33:54.047Z,14.47
2022-09-09T22:36:21.096Z,14.48
2022-09-09T22:38:49.051Z,14.45
2022-09-09T22:41:17.121Z,14.45
2022-09-09T22:43:43.972Z,14.44
2022-09-09T22:46:11.276Z,14.47
2022-09-09T22:48:39.128Z,14.46
2022-09-09T22:51:12.164Z,14.49
2022-09-09T22:53:42.927Z,14.52
2022-09-09T22:56:17.754Z,14.51
2022-09-09T22:58:44.905Z,14.48
2022-09-09T23:01:16.233Z,14.42
2022-09-09T23:03:46.204Z,14.42
2022-09-09T23:06:22.359Z,14.40
2022-09-09T23:08:57.729Z,14.41
2022-09-09T23:11:31.592Z,14.41
2022-09-09T23:14:00.634Z,14.43
2022-09-09T23:16:39.737Z,14.35
2022-09-09T23:19:10.061Z,14.30
2022-09-09T23:21:38.461Z,14.32
2022-09-09T23:24:06.595Z,14.21
2022-09-09T23:26:33.950Z,14.27
2022-09-09T23:29:02.412Z,14.27
2022-09-09T23:31:33.209Z,14.25
2022-09-09T23:34:01.126Z,14.22
2022-09-09T23:36:29.687Z,14.20
2022-09-09T23:38:59.453Z,14.16
2022-09-09T23:41:27.020Z,14.17
2022-09-09T23:43:54.380Z,14.11
2022-09-09T23:46:25.272Z,14.12
2022-09-09T23:48:51.945Z,14.09
2022-09-09T23:51:24.077Z,14.03
2022-09-09T23:53:53.189Z,14.02
2022-09-09T23:56:27.875Z,14.06
2022-09-09T23:58:55.297Z,14.06
